Time;durP1;ratioP1;P1;durP2;ratioP2;P2;SDS_P1;SDS_P2;PMS_P1;PMS_P2;Temp;Humidity;BMP_temperature;BMP_pressure;BME280_temperature;BME280_humidity;BME280_pressure;Samples;Min_cycle;Max_cycle;Signal;HPM_P1;HPM_P2
2024/04/13 00:01:27;;;;;;;;;;;;;;;13.40;77.74;99618.50;5491389;26;20356;-79
2024/04/13 00:03:52;;;;;;;;;;;;;;;13.33;77.84;99618.66;5492049;26;19992;-79
2024/04/13 00:06:18;;;;;;;;;;;;;;;13.28;78.04;99621.97;5491619;26;20249;-79
2024/04/13 00:08:43;;;;;;;;;;;;;;;13.37;78.21;99619.38;5489912;26;20363;-80
2024/04/13 00:11:08;;;;;;;;;;;;;;;13.37;77.53;99618.59;5489870;26;19950;-80
2024/04/13 00:13:34;;;;;;;;;;;;;;;13.42;77.40;99626.41;5490704;26;19928;-82
2024/04/13 00:15:59;;;;;;;;;;;;;;;13.53;76.91;99626.13;5489731;26;19954;-80
2024/04/13 00:18:25;;;;;;;;;;;;;;;13.52;76.80;99630.91;5490333;26;19935;-79
2024/04/13 00:20:50;;;;;;;;;;;;;;;13.70;76.43;99636.03;5489229;26;20000;-82
2024/04/13 00:23:16;;;;;;;;;;;;;;;13.63;77.12;99627.84;5489445;26;19936;-79
2024/04/13 00:25:42;;;;;;;;;;;;;;;13.74;76.54;99629.16;5488989;26;19927;-80
2024/04/13 00:28:09;;;;;;;;;;;;;;;13.70;76.58;99636.81;5488991;26;19934;-83
2024/04/13 00:30:34;;;;;;;;;;;;;;;13.68;75.70;99642.00;5491422;26;20369;-80
2024/04/13 00:33:00;;;;;;;;;;;;;;;13.60;76.42;99634.28;5491585;26;19928;-78
2024/04/13 00:35:26;;;;;;;;;;;;;;;13.61;76.06;99633.09;5488779;26;19928;-80
2024/04/13 00:37:51;;;;;;;;;;;;;;;13.71;76.45;99641.16;5489656;26;19928;-79
2024/04/13 00:40:17;;;;;;;;;;;;;;;13.76;75.86;99646.16;5488697;26;19935;-79
2024/04/13 00:42:42;;;;;;;;;;;;;;;13.85;75.76;99638.03;5489781;26;19938;-79
2024/04/13 00:45:08;;;;;;;;;;;;;;;13.83;76.45;99637.66;5489338;26;19938;-79
2024/04/13 00:47:34;;;;;;;;;;;;;;;13.86;76.53;99642.34;5489478;26;19936;-79
2024/04/13 00:50:02;;;;;;;;;;;;;;;13.75;77.16;99639.06;5489121;26;19928;-79
2024/04/13 00:52:28;;;;;;;;;;;;;;;13.69;77.87;99632.47;5489115;26;19935;-79
2024/04/13 00:54:55;;;;;;;;;;;;;;;13.69;78.59;99635.22;5489291;26;19928;-79
2024/04/13 00:57:26;;;;;;;;;;;;;;;13.76;78.94;99634.28;5489516;26;19931;-80
2024/04/13 00:59:52;;;;;;;;;;;;;;;13.72;79.55;99634.38;5492474;26;19959;-81
2024/04/13 01:02:18;;;;;;;;;;;;;;;13.79;79.42;99642.53;5498929;26;20361;-79
2024/04/13 01:04:50;;;;;;;;;;;;;;;13.78;78.42;99642.97;5506064;26;20485;-80
2024/04/13 01:07:19;;;;;;;;;;;;;;;13.73;78.49;99644.28;5503013;26;19997;-79
2024/04/13 01:09:45;;;;;;;;;;;;;;;13.56;79.25;99639.94;5489154;26;19928;-83
2024/04/13 01:12:11;;;;;;;;;;;;;;;13.49;77.80;99648.44;5489037;26;19955;-80
2024/04/13 01:14:36;;;;;;;;;;;;;;;13.26;75.19;99635.47;5490673;26;20377;-79
2024/04/13 01:17:02;;;;;;;;;;;;;;;13.07;76.11;99632.75;5470523;26;20260;-80
2024/04/13 01:19:27;;;;;;;;;;;;;;;12.94;77.14;99644.50;5477412;26;19935;-79
2024/04/13 01:21:52;;;;;;;;;;;;;;;12.85;78.41;99652.63;5465029;26;20360;-80
2024/04/13 01:24:18;;;;;;;;;;;;;;;12.77;78.34;99642.13;5482709;26;19928;-79
2024/04/13 01:26:43;;;;;;;;;;;;;;;12.74;78.51;99642.97;5488999;26;20274;-79
2024/04/13 01:29:09;;;;;;;;;;;;;;;12.80;79.05;99636.47;5488853;26;19932;-82
2024/04/13 01:31:35;;;;;;;;;;;;;;;12.74;79.01;99634.63;5489067;26;19932;-79
2024/04/13 01:34:02;;;;;;;;;;;;;;;12.79;80.11;99632.13;5489829;26;20389;-78
2024/04/13 01:36:37;;;;;;;;;;;;;;;12.82;80.39;99624.97;5490686;26;19935;-78
2024/04/13 01:39:07;;;;;;;;;;;;;;;12.79;80.88;99625.81;5488317;26;19928;-79
2024/04/13 01:41:35;;;;;;;;;;;;;;;12.73;81.75;99627.53;5488374;26;19940;-80
2024/04/13 01:44:00;;;;;;;;;;;;;;;12.74;82.31;99624.34;5488548;26;19935;-82
2024/04/13 01:46:25;;;;;;;;;;;;;;;12.70;81.73;99629.19;5488622;26;19928;-80
2024/04/13 01:48:51;;;;;;;;;;;;;;;12.68;81.97;99631.59;5489889;26;20356;-80
2024/04/13 01:51:16;;;;;;;;;;;;;;;12.68;82.23;99637.13;5487940;26;19934;-79
2024/04/13 01:53:42;;;;;;;;;;;;;;;12.83;81.75;99632.09;5487921;26;19928;-81
2024/04/13 01:56:07;;;;;;;;;;;;;;;12.86;80.40;99623.66;5488425;26;19934;-79
2024/04/13 01:58:32;;;;;;;;;;;;;;;12.88;80.25;99626.03;5488219;26;19932;-79
2024/04/13 02:01:02;;;;;;;;;;;;;;;12.80;80.41;99625.38;5488294;26;19934;-79
2024/04/13 02:03:27;;;;;;;;;;;;;;;12.74;81.50;99627.09;5463805;26;19954;-83
2024/04/13 02:05:52;;;;;;;;;;;;;;;12.79;82.50;99618.28;5489833;26;19932;-79
2024/04/13 02:08:18;;;;;;;;;;;;;;;12.87;83.14;99616.91;5463923;26;19934;-81
2024/04/13 02:10:43;;;;;;;;;;;;;;;12.90;82.93;99615.28;5482446;26;20272;-79
2024/04/13 02:13:08;;;;;;;;;;;;;;;12.86;83.87;99609.03;5485180;26;19927;-79
2024/04/13 02:15:34;;;;;;;;;;;;;;;12.87;83.58;99614.16;5488128;26;20375;-82
2024/04/13 02:17:59;;;;;;;;;;;;;;;12.74;81.31;99616.00;5489688;26;19927;-82
2024/04/13 02:20:25;;;;;;;;;;;;;;;12.71;81.81;99611.34;5488117;26;20356;-78
2024/04/13 02:22:50;;;;;;;;;;;;;;;12.75;84.28;99614.81;5487722;26;19932;-81
2024/04/13 02:25:16;;;;;;;;;;;;;;;12.71;85.22;99616.09;5489853;26;20261;-81
2024/04/13 02:27:41;;;;;;;;;;;;;;;12.62;82.08;99616.66;5489903;26;19936;-82
2024/04/13 02:30:08;;;;;;;;;;;;;;;12.54;82.13;99618.00;5487824;26;19928;-82
2024/04/13 02:32:33;;;;;;;;;;;;;;;12.67;84.83;99616.16;5488334;26;19935;-81
2024/04/13 02:34:58;;;;;;;;;;;;;;;12.80;86.81;99616.28;5488157;26;19928;-81
2024/04/13 02:37:23;;;;;;;;;;;;;;;12.94;86.14;99618.75;5486352;26;20321;-82
2024/04/13 02:39:49;;;;;;;;;;;;;;;13.09;85.64;99611.66;5488225;26;19928;-82
2024/04/13 02:42:14;;;;;;;;;;;;;;;13.17;84.63;99617.88;5487900;26;19928;-82
2024/04/13 02:44:39;;;;;;;;;;;;;;;13.06;80.84;99615.31;5487831;26;19936;-82
2024/04/13 02:47:05;;;;;;;;;;;;;;;12.78;79.27;99602.84;5489819;26;20345;-83
2024/04/13 02:49:30;;;;;;;;;;;;;;;12.51;79.51;99613.34;5489612;26;19935;-81
2024/04/13 02:51:55;;;;;;;;;;;;;;;12.29;81.18;99601.13;5487831;26;19935;-81
2024/04/13 02:54:21;;;;;;;;;;;;;;;12.23;81.59;99596.09;5487974;26;19939;-81
2024/04/13 02:56:46;;;;;;;;;;;;;;;12.31;82.16;99596.69;5487700;26;19928;-81
2024/04/13 02:59:11;;;;;;;;;;;;;;;12.27;82.53;99597.97;5487950;26;19992;-82
2024/04/13 03:01:36;;;;;;;;;;;;;;;12.26;81.71;99596.41;5487483;26;19935;-80
2024/04/13 03:04:02;;;;;;;;;;;;;;;12.16;82.27;99598.97;5487470;26;19935;-82
2024/04/13 03:06:27;;;;;;;;;;;;;;;12.13;83.08;99599.81;5487959;26;19936;-81
2024/04/13 03:08:53;;;;;;;;;;;;;;;12.11;84.52;99590.38;5487659;26;19935;-82
2024/04/13 03:11:20;;;;;;;;;;;;;;;12.10;85.16;99595.13;5486788;26;20244;-80
2024/04/13 03:13:46;;;;;;;;;;;;;;;12.18;84.16;99593.78;5470904;26;20455;-81
2024/04/13 03:16:12;;;;;;;;;;;;;;;12.07;85.38;99593.22;5475360;26;19940;-83
2024/04/13 03:18:38;;;;;;;;;;;;;;;12.10;86.46;99594.34;5463944;26;20001;-81
2024/04/13 03:21:04;;;;;;;;;;;;;;;12.14;86.45;99595.84;5506520;26;19997;-80
2024/04/13 03:23:31;;;;;;;;;;;;;;;12.24;85.99;99599.59;5469658;26;19960;-81
2024/04/13 03:25:57;;;;;;;;;;;;;;;12.21;85.64;99595.72;5487253;26;19939;-80
2024/04/13 03:28:25;;;;;;;;;;;;;;;12.16;85.20;99590.66;5487312;26;20025;-81
2024/04/13 03:30:50;;;;;;;;;;;;;;;12.08;85.00;99592.00;5486496;26;20020;-81
2024/04/13 03:45:57;;;;;;;;;;;;;;;12.32;87.14;99589.16;5435645;26;19940;-82
2024/04/13 03:48:22;;;;;;;;;;;;;;;12.26;84.63;99585.34;5415957;26;20002;-80
2024/04/13 03:50:48;;;;;;;;;;;;;;;12.16;84.03;99590.66;5416858;26;19933;-79
2024/04/13 03:53:14;;;;;;;;;;;;;;;12.15;82.84;99580.00;5436133;26;20253;-80
2024/04/13 03:55:39;;;;;;;;;;;;;;;12.05;83.58;99576.25;5433939;26;19935;-82
2024/04/13 03:58:04;;;;;;;;;;;;;;;11.83;85.96;99569.53;5420329;26;20403;-82
2024/04/13 04:00:30;;;;;;;;;;;;;;;12.00;86.25;99573.16;5402024;26;20373;-80
2024/04/13 04:02:56;;;;;;;;;;;;;;;12.08;85.85;99572.63;5420183;26;19929;-81
2024/04/13 04:05:22;;;;;;;;;;;;;;;12.15;84.94;99569.72;5397430;26;20250;-82
2024/04/13 04:07:47;;;;;;;;;;;;;;;12.28;84.71;99574.63;5413112;26;19932;-81
2024/04/13 04:10:12;;;;;;;;;;;;;;;12.38;84.65;99570.84;5435316;26;19940;-79
2024/04/13 04:12:39;;;;;;;;;;;;;;;12.42;84.32;99577.06;5432823;26;20337;-80
2024/04/13 04:15:05;;;;;;;;;;;;;;;12.48;84.73;99575.38;5411025;26;20360;-80
2024/04/13 04:17:30;;;;;;;;;;;;;;;12.57;84.36;99575.59;5412081;26;19937;-82
2024/04/13 04:19:55;;;;;;;;;;;;;;;12.79;83.95;99573.13;5433462;26;20757;-80
2024/04/13 04:22:20;;;;;;;;;;;;;;;12.92;84.10;99571.25;5434436;26;19929;-80
2024/04/13 04:24:46;;;;;;;;;;;;;;;13.04;82.81;99576.13;5399834;26;19933;-79
2024/04/13 04:27:11;;;;;;;;;;;;;;;13.08;81.28;99576.81;5414328;26;20390;-79
2024/04/13 04:29:40;;;;;;;;;;;;;;;12.78;78.48;99580.66;5397888;26;19945;-80
2024/04/13 04:32:06;;;;;;;;;;;;;;;12.45;80.01;99590.09;5400870;26;19942;-81
2024/04/13 04:34:31;;;;;;;;;;;;;;;12.19;83.86;99591.78;5435232;26;19932;-79
2024/04/13 04:36:57;;;;;;;;;;;;;;;12.27;84.47;99593.22;5407087;26;20256;-81
2024/04/13 04:39:22;;;;;;;;;;;;;;;12.22;85.60;99593.72;5397762;26;19934;-79
2024/04/13 04:41:47;;;;;;;;;;;;;;;12.45;85.32;99596.44;5423410;26;19937;-79
2024/04/13 04:44:12;;;;;;;;;;;;;;;12.66;84.43;99595.19;5430906;26;20260;-80
2024/04/13 04:46:38;;;;;;;;;;;;;;;12.84;83.69;99598.34;5398354;26;19936;-81
2024/04/13 04:49:04;;;;;;;;;;;;;;;12.92;82.76;99598.97;5382291;26;19938;-83
2024/04/13 04:51:29;;;;;;;;;;;;;;;13.07;81.42;99600.25;5382476;26;19929;-83
2024/04/13 04:53:54;;;;;;;;;;;;;;;13.26;80.12;99604.19;5392803;26;19936;-81
2024/04/13 04:56:20;;;;;;;;;;;;;;;13.52;79.71;99605.13;5417578;26;19940;-81
2024/04/13 04:58:45;;;;;;;;;;;;;;;13.70;79.10;99602.69;5387204;26;19936;-81
2024/04/13 05:01:10;;;;;;;;;;;;;;;13.98;79.28;99606.75;5402557;26;19929;-80
2024/04/13 05:03:36;;;;;;;;;;;;;;;14.45;76.90;99610.63;5411769;26;20328;-82
2024/04/13 05:06:01;;;;;;;;;;;;;;;15.21;73.63;99609.94;5402062;26;19976;-82
2024/04/13 05:08:26;;;;;;;;;;;;;;;15.62;69.11;99603.47;5410025;26;19930;-80
2024/04/13 05:10:52;;;;;;;;;;;;;;;16.68;64.83;99603.31;5382499;26;20238;-79
2024/04/13 05:13:17;;;;;;;;;;;;;;;17.48;60.43;99605.38;5413534;26;19936;-79
2024/04/13 05:15:43;;;;;;;;;;;;;;;18.81;56.30;99611.19;5397639;26;19929;-80
2024/04/13 05:18:08;;;;;;;;;;;;;;;20.11;51.37;99608.06;5404672;26;19929;-80
2024/04/13 05:20:34;;;;;;;;;;;;;;;21.36;48.78;99611.34;5381971;26;19958;-84
2024/04/13 05:23:00;;;;;;;;;;;;;;;22.29;46.85;99613.16;5380809;26;19938;-80
2024/04/13 05:25:26;;;;;;;;;;;;;;;22.67;45.56;99617.63;5400403;26;19957;-80
2024/04/13 05:27:52;;;;;;;;;;;;;;;23.28;44.40;99621.00;5411565;26;19929;-80
2024/04/13 05:30:17;;;;;;;;;;;;;;;23.72;42.26;99612.09;5399049;26;19933;-82
2024/04/13 05:32:43;;;;;;;;;;;;;;;23.49;43.82;99605.56;5393212;26;19963;-83
2024/04/13 05:35:08;;;;;;;;;;;;;;;23.83;42.82;99600.09;5416880;26;20264;-79
2024/04/13 05:37:34;;;;;;;;;;;;;;;24.56;42.05;99599.09;5387532;26;20369;-83
2024/04/13 05:39:59;;;;;;;;;;;;;;;25.26;40.67;99603.03;5397934;26;20018;-81
2024/04/13 05:42:24;;;;;;;;;;;;;;;24.92;40.18;99608.69;5416550;26;20005;-81
2024/04/13 05:44:50;;;;;;;;;;;;;;;24.99;40.31;99607.41;5408644;26;20353;-81
2024/04/13 05:47:15;;;;;;;;;;;;;;;24.57;40.45;99611.94;5381032;26;19929;-79
2024/04/13 05:49:40;;;;;;;;;;;;;;;24.96;39.40;99603.53;5380484;26;19941;-82
2024/04/13 05:52:06;;;;;;;;;;;;;;;25.67;38.97;99598.34;5381149;26;19930;-78
2024/04/13 05:54:31;;;;;;;;;;;;;;;25.53;39.21;99600.16;5384290;26;19937;-79
2024/04/13 05:56:57;;;;;;;;;;;;;;;25.65;38.76;99600.91;5415483;26;19929;-79
2024/04/13 05:59:22;;;;;;;;;;;;;;;25.83;38.19;99600.34;5416074;26;20002;-78
2024/04/13 06:01:47;;;;;;;;;;;;;;;25.09;40.27;99592.47;5416093;26;19929;-81
2024/04/13 06:04:12;;;;;;;;;;;;;;;25.90;39.27;99587.72;5392666;26;20320;-81
2024/04/13 06:06:38;;;;;;;;;;;;;;;25.76;38.84;99588.78;5402666;26;19937;-80
2024/04/13 06:09:05;;;;;;;;;;;;;;;25.16;40.03;99593.25;5404522;26;19929;-80
2024/04/13 06:11:30;;;;;;;;;;;;;;;25.28;39.66;99584.25;5380997;26;19930;-81
2024/04/13 06:13:56;;;;;;;;;;;;;;;25.61;39.39;99594.75;5406637;26;19929;-79
2024/04/13 06:16:21;;;;;;;;;;;;;;;25.38;40.31;99577.00;5402400;26;19933;-80
2024/04/13 06:18:46;;;;;;;;;;;;;;;25.81;40.34;99585.94;5378941;26;19961;-79
2024/04/13 06:21:11;;;;;;;;;;;;;;;25.90;39.34;99576.41;5379593;26;19934;-81
2024/04/13 06:23:38;;;;;;;;;;;;;;;25.65;39.76;99566.19;5380561;26;20373;-79
2024/04/13 06:26:04;;;;;;;;;;;;;;;25.86;39.56;99576.66;5378744;26;19929;-81
2024/04/13 06:28:30;;;;;;;;;;;;;;;25.85;39.43;99568.69;5403858;26;19940;-79
2024/04/13 06:30:55;;;;;;;;;;;;;;;25.60;39.10;99573.41;5414854;26;19978;-80
2024/04/13 06:33:20;;;;;;;;;;;;;;;25.73;40.14;99579.28;5390139;26;19934;-81
2024/04/13 06:35:49;;;;;;;;;;;;;;;25.99;39.85;99570.41;5411786;26;19941;-78
2024/04/13 06:38:18;;;;;;;;;;;;;;;25.78;38.25;99575.66;5385790;26;19933;-81
2024/04/13 06:40:44;;;;;;;;;;;;;;;26.48;36.95;99567.88;5393801;26;19933;-79
2024/04/13 06:43:09;;;;;;;;;;;;;;;26.81;37.59;99586.72;5403907;26;20403;-81
2024/04/13 06:45:37;;;;;;;;;;;;;;;27.01;35.95;99587.09;5413646;26;19936;-79
2024/04/13 06:48:02;;;;;;;;;;;;;;;27.12;35.78;99584.19;5418025;26;19929;-80
2024/04/13 06:50:28;;;;;;;;;;;;;;;26.99;36.01;99588.94;5386657;26;19929;-79
2024/04/13 06:52:53;;;;;;;;;;;;;;;26.95;36.24;99582.75;5399113;26;19933;-79
2024/04/13 06:55:18;;;;;;;;;;;;;;;27.87;35.47;99584.44;5417655;26;19933;-81
2024/04/13 06:57:44;;;;;;;;;;;;;;;28.45;34.29;99574.69;5415185;26;19937;-81
2024/04/13 07:00:09;;;;;;;;;;;;;;;28.89;33.53;99574.00;5416637;26;19941;-79
2024/04/13 07:02:34;;;;;;;;;;;;;;;29.03;34.54;99571.97;5415483;26;19929;-80
2024/04/13 07:05:00;;;;;;;;;;;;;;;29.37;32.90;99575.03;5415330;26;20355;-80
2024/04/13 07:07:25;;;;;;;;;;;;;;;29.31;34.02;99568.63;5417595;26;19933;-80
2024/04/13 07:09:51;;;;;;;;;;;;;;;29.02;33.85;99574.06;5416114;26;19937;-80
2024/04/13 07:12:16;;;;;;;;;;;;;;;30.09;33.01;99564.28;5415656;26;19929;-79
2024/04/13 07:14:42;;;;;;;;;;;;;;;30.05;32.10;99566.72;5384902;26;19934;-78
2024/04/13 07:17:07;;;;;;;;;;;;;;;30.07;32.47;99566.94;5398634;26;20404;-80
2024/04/13 07:19:32;;;;;;;;;;;;;;;30.00;32.71;99553.38;5391298;26;19933;-80
2024/04/13 07:21:58;;;;;;;;;;;;;;;30.19;32.94;99562.53;5398013;26;19929;-80
2024/04/13 07:24:23;;;;;;;;;;;;;;;30.70;32.21;99554.38;5384190;26;19941;-78
2024/04/13 07:26:48;;;;;;;;;;;;;;;30.72;31.56;99549.66;5400703;26;19956;-79
2024/04/13 07:29:14;;;;;;;;;;;;;;;30.38;32.55;99548.91;5407504;26;20425;-79
2024/04/13 07:31:39;;;;;;;;;;;;;;;30.86;31.75;99546.75;5399154;26;19930;-81
2024/04/13 07:34:04;;;;;;;;;;;;;;;30.51;32.06;99546.00;5402524;26;20334;-82
2024/04/13 07:36:29;;;;;;;;;;;;;;;31.46;30.66;99547.25;5381504;26;19929;-79
2024/04/13 07:38:55;;;;;;;;;;;;;;;31.81;30.22;99553.56;5382149;26;20434;-80
2024/04/13 07:41:20;;;;;;;;;;;;;;;32.04;30.59;99550.81;5400205;26;19929;-81
2024/04/13 07:43:45;;;;;;;;;;;;;;;32.20;30.45;99550.34;5405721;26;19929;-81
2024/04/13 07:46:10;;;;;;;;;;;;;;;32.89;29.89;99547.66;5414756;26;19929;-82
2024/04/13 07:48:36;;;;;;;;;;;;;;;32.01;30.38;99547.00;5416680;26;19929;-81
2024/04/13 07:51:03;;;;;;;;;;;;;;;31.43;31.13;99539.78;5415970;26;19936;-78
2024/04/13 07:53:30;;;;;;;;;;;;;;;31.00;32.73;99537.53;5414528;26;19936;-81
2024/04/13 07:55:56;;;;;;;;;;;;;;;29.86;32.84;99541.94;5399448;26;19937;-80
2024/04/13 07:58:21;;;;;;;;;;;;;;;29.03;34.91;99530.06;5379028;26;19929;-80
2024/04/13 08:00:47;;;;;;;;;;;;;;;28.47;35.67;99537.94;5379311;26;20002;-79
2024/04/13 08:03:12;;;;;;;;;;;;;;;28.28;37.12;99530.19;5401512;26;19930;-80
2024/04/13 08:05:38;;;;;;;;;;;;;;;27.76;37.89;99524.16;5380169;26;19930;-80
2024/04/13 08:08:04;;;;;;;;;;;;;;;27.35;38.42;99530.03;5403382;26;19994;-80
2024/04/13 08:10:29;;;;;;;;;;;;;;;27.49;37.42;99535.28;5370998;26;20373;-80
2024/04/13 08:12:55;;;;;;;;;;;;;;;27.25;38.52;99526.78;5402765;26;19929;-80
2024/04/13 08:15:20;;;;;;;;;;;;;;;27.32;37.02;99526.19;5379122;26;19929;-81
2024/04/13 08:17:46;;;;;;;;;;;;;;;27.33;37.54;99524.88;5381710;26;19937;-80
2024/04/13 08:20:11;;;;;;;;;;;;;;;26.89;37.60;99519.63;5400526;26;19941;-80
2024/04/13 08:22:36;;;;;;;;;;;;;;;26.86;39.41;99515.78;5385319;26;19937;-81
2024/04/13 08:25:01;;;;;;;;;;;;;;;27.01;38.07;99519.00;5418727;26;20249;-81
2024/04/13 08:27:27;;;;;;;;;;;;;;;27.08;39.45;99517.66;5397528;26;19937;-83
2024/04/13 08:29:52;;;;;;;;;;;;;;;27.21;38.40;99520.63;5389742;26;19961;-83
2024/04/13 08:32:17;;;;;;;;;;;;;;;27.09;37.08;99513.53;5416139;26;19929;-81
2024/04/13 08:34:43;;;;;;;;;;;;;;;26.93;37.96;99511.63;5418245;26;20377;-81
2024/04/13 08:37:08;;;;;;;;;;;;;;;26.90;36.83;99498.50;5397794;26;20384;-80
2024/04/13 08:39:35;;;;;;;;;;;;;;;26.88;37.14;99504.72;5412435;26;19937;-82
2024/04/13 08:42:08;;;;;;;;;;;;;;;26.83;38.02;99491.31;5397020;26;19930;-82
2024/04/13 08:44:34;;;;;;;;;;;;;;;26.96;36.53;99494.31;5402983;26;19999;-80
2024/04/13 08:47:00;;;;;;;;;;;;;;;26.69;35.57;99490.41;5407198;26;19941;-82
2024/04/13 08:49:27;;;;;;;;;;;;;;;26.39;35.19;99486.78;5382472;26;19929;-80
2024/04/13 08:51:52;;;;;;;;;;;;;;;26.43;36.01;99492.16;5385460;26;19929;-80
2024/04/13 08:54:17;;;;;;;;;;;;;;;26.78;35.61;99488.53;5401495;26;19936;-80
2024/04/13 08:56:44;;;;;;;;;;;;;;;27.11;34.38;99486.19;5398256;26;19938;-80
2024/04/13 08:59:10;;;;;;;;;;;;;;;27.47;34.16;99471.84;5396599;26;19998;-82
2024/04/13 09:01:37;;;;;;;;;;;;;;;27.57;33.87;99484.38;5388769;26;19930;-83
2024/04/13 09:04:02;;;;;;;;;;;;;;;27.63;35.81;99475.78;5382585;26;19936;-84
2024/04/13 09:06:28;;;;;;;;;;;;;;;27.89;33.73;99473.13;5388590;26;19936;-81
2024/04/13 09:08:54;;;;;;;;;;;;;;;27.56;32.82;99473.56;5402721;26;20312;-79
2024/04/13 09:11:22;;;;;;;;;;;;;;;27.33;33.45;99487.22;5392465;26;19930;-83
2024/04/13 09:13:49;;;;;;;;;;;;;;;27.59;31.04;99475.34;5384042;26;19958;-83
2024/04/13 09:16:15;;;;;;;;;;;;;;;28.09;33.10;99466.88;5383983;26;19937;-80
2024/04/13 09:18:40;;;;;;;;;;;;;;;28.43;32.22;99461.50;5399606;26;19929;-83
2024/04/13 09:21:07;;;;;;;;;;;;;;;28.79;31.56;99470.47;5388484;26;19936;-83
2024/04/13 09:23:33;;;;;;;;;;;;;;;29.00;29.86;99456.38;5384340;26;19934;-82
2024/04/13 09:26:05;;;;;;;;;;;;;;;28.87;30.64;99454.31;5382553;26;20002;-81
2024/04/13 09:28:40;;;;;;;;;;;;;;;28.50;29.80;99460.88;5379311;26;19941;-83
2024/04/13 09:31:06;;;;;;;;;;;;;;;27.85;32.61;99450.69;5416462;26;19929;-81
2024/04/13 09:33:31;;;;;;;;;;;;;;;27.95;31.92;99442.56;5416717;26;19937;-80
2024/04/13 09:35:57;;;;;;;;;;;;;;;28.43;31.08;99440.81;5407796;26;19998;-80
2024/04/13 09:38:23;;;;;;;;;;;;;;;28.13;30.81;99435.34;5381550;26;19999;-80
2024/04/13 09:40:48;;;;;;;;;;;;;;;28.21;33.05;99434.19;5390691;26;19929;-79
2024/04/13 09:43:20;;;;;;;;;;;;;;;28.84;33.47;99444.00;5399912;26;20432;-80
2024/04/13 09:45:47;;;;;;;;;;;;;;;29.13;32.80;99437.25;5405823;26;20265;-81
2024/04/13 09:48:13;;;;;;;;;;;;;;;28.68;31.46;99442.22;5381902;26;19929;-79
2024/04/13 09:50:38;;;;;;;;;;;;;;;28.56;31.03;99435.19;5382922;26;19998;-81
2024/04/13 09:53:04;;;;;;;;;;;;;;;28.43;31.16;99444.44;5402695;26;19929;-81
2024/04/13 09:55:30;;;;;;;;;;;;;;;28.27;31.47;99442.66;5407177;26;19940;-81
2024/04/13 09:57:56;;;;;;;;;;;;;;;28.36;31.91;99445.06;5405206;26;19936;-79
2024/04/13 10:00:22;;;;;;;;;;;;;;;28.47;31.75;99444.88;5383276;26;20016;-81
2024/04/13 10:02:47;;;;;;;;;;;;;;;28.42;31.53;99445.75;5381420;26;19938;-79
2024/04/13 10:05:12;;;;;;;;;;;;;;;28.43;31.55;99450.13;5380545;26;19952;-80
2024/04/13 10:07:39;;;;;;;;;;;;;;;28.33;30.74;99446.91;5403286;26;19957;-81
2024/04/13 10:10:07;;;;;;;;;;;;;;;28.27;31.10;99449.06;5400634;26;19929;-79
2024/04/13 10:12:38;;;;;;;;;;;;;;;28.14;31.93;99440.50;5405116;26;20001;-80
2024/04/13 10:15:03;;;;;;;;;;;;;;;28.27;32.73;99443.38;5365225;26;19930;-80
2024/04/13 10:17:30;;;;;;;;;;;;;;;28.60;32.05;99438.47;5383335;26;19940;-80
2024/04/13 10:19:55;;;;;;;;;;;;;;;28.90;31.17;99441.06;5381308;26;19940;-81
2024/04/13 10:22:21;;;;;;;;;;;;;;;28.80;30.63;99443.56;5400470;26;20480;-79
2024/04/13 10:24:46;;;;;;;;;;;;;;;28.72;30.44;99434.13;5404578;26;19941;-80
2024/04/13 10:27:12;;;;;;;;;;;;;;;28.36;31.42;99439.38;5407806;26;19929;-79
2024/04/13 10:29:41;;;;;;;;;;;;;;;28.14;31.40;99434.06;5387690;26;19999;-81
2024/04/13 10:32:16;;;;;;;;;;;;;;;28.03;32.00;99429.25;5397457;26;19941;-80
2024/04/13 10:34:42;;;;;;;;;;;;;;;28.13;32.22;99419.09;5393160;26;19952;-80
2024/04/13 10:37:22;;;;;;;;;;;;;;;28.11;32.04;99418.81;5413700;26;19933;-80
2024/04/13 10:40:07;;;;;;;;;;;;;;;27.94;30.85;99418.31;5392010;26;20306;-79
2024/04/13 10:42:33;;;;;;;;;;;;;;;27.93;32.84;99408.25;5395275;26;19940;-80
2024/04/13 10:44:59;;;;;;;;;;;;;;;27.88;33.03;99403.44;5398801;26;19928;-79
2024/04/13 10:47:24;;;;;;;;;;;;;;;27.57;32.23;99410.56;5404955;26;20350;-78
2024/04/13 10:49:50;;;;;;;;;;;;;;;27.65;33.33;99397.31;5384743;26;19930;-80
2024/04/13 10:52:17;;;;;;;;;;;;;;;27.61;33.73;99394.00;5406260;26;19929;-78
2024/04/13 10:54:53;;;;;;;;;;;;;;;27.87;33.50;99401.88;5391556;26;19937;-81
2024/04/13 10:57:18;;;;;;;;;;;;;;;28.14;32.85;99389.38;5386940;26;19970;-79
2024/04/13 10:59:43;;;;;;;;;;;;;;;28.38;33.63;99390.53;5381538;26;19929;-80
2024/04/13 11:02:09;;;;;;;;;;;;;;;28.54;31.73;99389.47;5397545;26;19944;-81
2024/04/13 11:04:41;;;;;;;;;;;;;;;28.59;30.98;99389.34;5389657;26;19933;-78
2024/04/13 11:07:06;;;;;;;;;;;;;;;28.46;28.10;99392.16;5405980;26;20002;-80
2024/04/13 11:09:32;;;;;;;;;;;;;;;28.65;33.02;99389.25;5382390;26;20365;-80
2024/04/13 11:11:57;;;;;;;;;;;;;;;28.62;28.25;99393.19;5404489;26;19941;-80
2024/04/13 11:14:23;;;;;;;;;;;;;;;28.30;29.00;99391.16;5394857;26;19938;-81
2024/04/13 11:16:49;;;;;;;;;;;;;;;28.00;30.49;99379.22;5403847;26;19929;-80
2024/04/13 11:19:14;;;;;;;;;;;;;;;27.99;29.87;99374.06;5411820;26;20260;-80
2024/04/13 11:21:40;;;;;;;;;;;;;;;28.16;28.56;99369.69;5409077;26;19937;-79
2024/04/13 11:24:08;;;;;;;;;;;;;;;28.36;29.51;99371.16;5413219;26;19929;-81
2024/04/13 11:26:33;;;;;;;;;;;;;;;28.58;27.80;99367.16;5389672;26;20340;-80
2024/04/13 11:28:59;;;;;;;;;;;;;;;28.82;28.67;99355.59;5403695;26;19929;-80
2024/04/13 11:31:24;;;;;;;;;;;;;;;28.77;27.54;99362.16;5402943;26;19957;-79
2024/04/13 11:33:50;;;;;;;;;;;;;;;28.47;27.91;99353.91;5413861;26;19937;-81
2024/04/13 11:36:19;;;;;;;;;;;;;;;28.10;26.35;99357.59;5407324;26;19929;-80
2024/04/13 11:38:47;;;;;;;;;;;;;;;27.83;26.85;99353.94;5402452;26;19940;-78
2024/04/13 11:41:12;;;;;;;;;;;;;;;27.69;28.28;99345.88;5404073;26;19929;-80
2024/04/13 11:43:39;;;;;;;;;;;;;;;27.77;29.40;99338.28;5411118;26;19929;-81
2024/04/13 11:46:04;;;;;;;;;;;;;;;28.05;32.21;99334.97;5400458;26;19935;-80
2024/04/13 11:48:32;;;;;;;;;;;;;;;28.08;28.83;99331.84;5391262;26;19930;-79
2024/04/13 11:50:58;;;;;;;;;;;;;;;28.14;27.41;99329.69;5380194;26;19940;-79
2024/04/13 11:53:23;;;;;;;;;;;;;;;28.09;26.72;99332.59;5399987;26;20341;-78
2024/04/13 11:55:49;;;;;;;;;;;;;;;28.17;27.88;99320.06;5399789;26;20286;-78
2024/04/13 11:58:23;;;;;;;;;;;;;;;28.40;28.63;99320.44;5393556;26;19930;-78
2024/04/13 12:00:48;;;;;;;;;;;;;;;28.35;27.43;99309.94;5370215;26;20373;-79
2024/04/13 12:03:14;;;;;;;;;;;;;;;28.47;28.26;99307.66;5381323;26;19937;-80
2024/04/13 12:05:39;;;;;;;;;;;;;;;28.14;26.03;99306.19;5415746;26;19929;-79
2024/04/13 12:08:04;;;;;;;;;;;;;;;27.81;26.82;99311.09;5392695;26;19957;-80
2024/04/13 12:10:30;;;;;;;;;;;;;;;27.82;25.80;99311.84;5429795;26;20380;-79
2024/04/13 12:12:55;;;;;;;;;;;;;;;27.64;27.55;99306.97;5370295;26;20323;-79
2024/04/13 12:15:21;;;;;;;;;;;;;;;27.69;28.15;99303.28;5405876;26;19936;-80
2024/04/13 12:17:46;;;;;;;;;;;;;;;27.93;25.92;99301.06;5384627;26;19941;-81
2024/04/13 12:20:11;;;;;;;;;;;;;;;28.12;26.63;99298.19;5416328;26;19929;-80
2024/04/13 12:22:36;;;;;;;;;;;;;;;28.37;26.07;99298.78;5397047;26;19937;-79
2024/04/13 12:25:03;;;;;;;;;;;;;;;28.41;26.33;99304.91;5405972;26;19936;-81
2024/04/13 12:27:28;;;;;;;;;;;;;;;28.00;26.38;99287.53;5382782;26;19929;-78
2024/04/13 12:29:54;;;;;;;;;;;;;;;27.57;26.47;99293.41;5382849;26;19999;-81
2024/04/13 12:32:19;;;;;;;;;;;;;;;27.36;25.51;99287.50;5382398;26;19929;-80
2024/04/13 12:34:44;;;;;;;;;;;;;;;27.35;28.35;99286.72;5407586;26;19957;-80
2024/04/13 12:37:10;;;;;;;;;;;;;;;27.30;27.85;99281.91;5402844;26;20246;-81
2024/04/13 12:39:35;;;;;;;;;;;;;;;27.13;27.84;99272.84;5417560;26;19936;-79
2024/04/13 12:42:00;;;;;;;;;;;;;;;26.94;27.89;99272.09;5419204;26;20264;-80
2024/04/13 12:44:28;;;;;;;;;;;;;;;26.86;27.87;99271.13;5404282;26;19936;-81
2024/04/13 12:46:54;;;;;;;;;;;;;;;26.61;27.67;99271.16;5385648;26;19941;-79
2024/04/13 12:49:19;;;;;;;;;;;;;;;26.55;29.18;99267.63;5417981;26;19929;-80
2024/04/13 12:51:44;;;;;;;;;;;;;;;26.32;28.13;99260.69;5416073;26;19929;-81
2024/04/13 12:54:10;;;;;;;;;;;;;;;26.27;28.71;99265.13;5384444;26;19953;-80